Yoder, WY

10:01 PM MST on February 13, 2016 (GMT -0700)
Cherry Creek | | Change Station
CLOSE
Current Station
Personal Weather Station
Location: Veteran, WY
Elevation: 4249 ft
Nearby Weather Stations

Elev 4249 ft 41.99 °N, 104.40 °W | Updated 1 minute ago

Clear
Clear
31.8 °F
Feels Like 25 °F
N
7.0
Wind Variable Wind from WNW
Gusts 12.0 mph

Today
High -- | Low -- °F
--% Chance of Precip.
Yesterday
High -- | Low -- °F
Precip. -- in
Pressure 30.11 in
Visibility 10.0 miles
Clouds Clear
Windchill 25 °F
Dew Point 27 °F
Humidity 81%
Rainfall 0.00 in
Snow Depth Not available.
6:56 AM 5:27 PM
Waxing Crescent, 37% visible
METAR KTOR 140453Z AUTO 28009KT 10SM CLR 01/M02 A3003 RMK AO2 SLP194 T00061017
Pressure 30.11 in
Visibility 10.0 miles
Clouds Clear
Windchill 25 °F
Dew Point 27 °F
Humidity 81%
Rainfall 0.00 in
Snow Depth Not available.
6:56 AM 5:27 PM
Waxing Crescent, 37% visible
METAR KTOR 140453Z AUTO 28009KT 10SM CLR 01/M02 A3003 RMK AO2 SLP194 T00061017

10-Day Weather Forecast

Almanac

Astronomy

Feb. 13, 2016 Rise Set
Actual Time
Civil Twilight
Nautical Twilight
Astronomical Twilight
Moon
Length of Visible Light
Length of Day
Tomorrow will be .
, % of the Moon is Illuminated

Today's Extremes

State Highs State Lows

Community

WunderPhotos

Upload Photos

1,892,748 photos uploaded!

WunderBlog® & News

Nearby

Air Quality

  Air Quality AQ Index Pollutant
Not available.

Snow Depth

Station Depth Elevation

Earthquake Activity

City Distance Mag. Time & Date
Minimum magnitude displayed is 2.5.

Coastal Water Temperatures

Place Temperature

Stations

Nearby Weather Stations

Station Location Temp. Windchill Dew Point Humidity Wind Precip. Elev Updated Type
                   

Watches & Warnings

There are currently no watches in effect.